Time;durP1;ratioP1;P1;durP2;ratioP2;P2;SDS_P1;SDS_P2;PMS_P1;PMS_P2;Temp;Humidity;BMP_temperature;BMP_pressure;BME280_temperature;BME280_humidity;BME280_pressure;Samples;Min_cycle;Max_cycle;Signal;HPM_P1;HPM_P2
2020/12/26 00:01:37;;;;;;;49.67;25.50;;;;;;;6.12;73.62;99234.25;5040774;28;20347;-78
2020/12/26 00:04:03;;;;;;;94.68;28.27;;;;;;;5.83;74.08;99194.44;5040734;28;20335;-80
2020/12/26 00:06:29;;;;;;;44.87;24.87;;;;;;;6.17;72.98;99234.59;5040877;28;20017;-78
2020/12/26 00:08:54;;;;;;;61.97;27.77;;;;;;;5.89;73.32;99183.31;5058493;28;20040;-80
2020/12/26 00:11:20;;;;;;;69.15;27.65;;;;;;;6.21;73.68;99232.50;5040691;28;20044;-77
2020/12/26 00:13:47;;;;;;;58.97;28.47;;;;;;;6.16;73.56;99229.53;5040780;28;20321;-79
2020/12/26 00:16:13;;;;;;;70.63;30.07;;;;;;;5.56;73.65;99129.97;5058059;28;20045;-77
2020/12/26 00:18:39;;;;;;;67.65;31.20;;;;;;;6.20;73.80;99238.72;5058330;28;20104;-78
2020/12/26 00:21:13;;;;;;;70.40;29.20;;;;;;;5.80;73.71;99171.97;5058055;28;20082;-77
2020/12/26 00:23:39;;;;;;;80.33;28.03;;;;;;;6.31;73.58;99255.00;5058439;28;20029;-78
2020/12/26 00:26:05;;;;;;;69.72;27.35;;;;;;;6.31;74.09;99251.53;5058093;28;20036;-81
2020/12/26 00:28:31;;;;;;;56.50;26.23;;;;;;;6.33;74.09;99247.78;5058159;28;20033;-77
2020/12/26 00:30:57;;;;;;;46.78;23.75;;;;;;;6.22;73.75;99253.31;5040261;28;20029;-79
2020/12/26 00:33:22;;;;;;;59.88;27.83;;;;;;;6.26;73.84;99244.16;5057926;28;20028;-78
2020/12/26 00:35:48;;;;;;;88.63;25.93;;;;;;;5.92;73.65;99198.75;5058030;28;20040;-78
2020/12/26 00:38:14;;;;;;;95.77;24.93;;;;;;;6.34;74.03;99262.53;5058096;28;20033;-78
2020/12/26 00:40:40;;;;;;;45.27;23.87;;;;;;;6.23;73.67;99235.78;5058009;28;20039;-78
2020/12/26 00:43:05;;;;;;;43.70;24.73;;;;;;;6.10;73.92;99204.78;5057774;28;20033;-78
2020/12/26 00:45:31;;;;;;;92.73;26.03;;;;;;;5.55;73.89;99110.81;5040128;28;20049;-78
2020/12/26 00:47:56;;;;;;;65.00;23.00;;;;;;;6.27;73.88;99251.03;5040240;28;20325;-79
2020/12/26 00:50:21;;;;;;;72.57;25.73;;;;;;;5.74;74.12;99175.22;5057637;28;20016;-79
2020/12/26 00:52:47;;;;;;;45.90;25.10;;;;;;;6.12;73.94;99243.94;5057804;28;20462;-78
2020/12/26 00:55:12;;;;;;;49.13;22.42;;;;;;;5.63;74.07;99170.25;5057533;28;20082;-78
2020/12/26 00:57:40;;;;;;;53.53;24.17;;;;;;;6.23;74.40;99269.84;5057608;28;20035;-80
2020/12/26 01:00:05;;;;;;;45.53;22.25;;;;;;;5.92;74.21;99231.03;5057433;28;20155;-79
2020/12/26 01:02:31;;;;;;;87.03;25.13;;;;;;;5.88;74.29;99207.88;5057261;28;20471;-79
2020/12/26 01:04:56;;;;;;;41.17;23.80;;;;;;;5.93;74.28;99227.44;5039895;28;20025;-78
2020/12/26 01:07:22;;;;;;;119.37;27.77;;;;;;;6.15;74.13;99254.09;5057394;28;20033;-78
2020/12/26 01:09:47;;;;;;;45.33;21.70;;;;;;;6.21;74.30;99277.88;5056308;28;20095;-78
2020/12/26 01:12:12;;;;;;;49.93;22.43;;;;;;;6.08;74.00;99242.59;5057290;28;20028;-77
2020/12/26 01:14:38;;;;;;;48.85;23.20;;;;;;;6.12;73.86;99250.00;5057528;28;20021;-78
2020/12/26 01:17:03;;;;;;;51.50;24.70;;;;;;;5.62;74.18;99172.06;5057004;28;20056;-81
2020/12/26 01:19:28;;;;;;;91.35;24.92;;;;;;;6.34;74.33;99266.97;5039520;28;20375;-77
2020/12/26 01:21:55;;;;;;;52.17;22.83;;;;;;;5.79;74.26;99175.59;5057048;28;20037;-79
2020/12/26 01:24:21;;;;;;;54.93;26.83;;;;;;;6.10;73.63;99214.44;5057208;28;20116;-77
2020/12/26 01:26:47;;;;;;;63.35;24.63;;;;;;;6.37;74.15;99267.47;5057041;28;20148;-80
2020/12/26 01:29:13;;;;;;;115.07;27.50;;;;;;;6.32;73.84;99271.53;5056905;28;20494;-77
2020/12/26 01:31:39;;;;;;;45.95;24.00;;;;;;;6.22;73.89;99265.59;5056931;28;20096;-79
2020/12/26 01:34:05;;;;;;;105.60;27.10;;;;;;;5.92;74.66;99217.94;5056795;28;20039;-78
2020/12/26 01:36:30;;;;;;;52.23;24.13;;;;;;;6.26;73.95;99265.13;5039229;28;20033;-78
2020/12/26 01:38:55;;;;;;;81.03;26.20;;;;;;;6.17;74.19;99255.59;5056934;28;20447;-78
2020/12/26 01:41:21;;;;;;;37.13;20.13;;;;;;;5.66;74.54;99170.78;5039071;28;20095;-78
2020/12/26 01:44:01;;;;;;;38.40;20.60;;;;;;;6.23;75.16;99259.38;5056812;28;20024;-78
2020/12/26 01:46:32;;;;;;;41.33;19.90;;;;;;;6.14;74.04;99239.34;5056608;28;20343;-78
2020/12/26 01:48:59;;;;;;;30.20;17.92;;;;;;;6.31;74.50;99262.03;5056682;28;20446;-78
2020/12/26 01:51:26;;;;;;;47.28;19.85;;;;;;;6.30;74.64;99263.84;5056580;28;20095;-79
2020/12/26 01:53:53;;;;;;;79.07;21.47;;;;;;;6.31;74.15;99262.84;5056667;28;20427;-79
2020/12/26 01:56:19;;;;;;;77.00;26.00;;;;;;;6.18;74.57;99248.53;5056408;28;20041;-80
2020/12/26 01:58:45;;;;;;;40.13;21.13;;;;;;;5.35;74.71;99114.63;5056549;28;20079;-79
2020/12/26 02:01:11;;;;;;;41.63;21.10;;;;;;;6.17;74.80;99236.41;5038530;28;20040;-78
2020/12/26 02:03:42;;;;;;;37.10;20.80;;;;;;;6.31;74.34;99251.53;5056447;28;20048;-77
2020/12/26 02:06:08;;;;;;;36.38;19.77;;;;;;;6.33;74.12;99245.16;5038531;28;20033;-79
2020/12/26 02:08:35;;;;;;;47.95;22.55;;;;;;;6.23;74.46;99222.66;5056357;28;20328;-78
2020/12/26 02:11:05;;;;;;;41.65;22.20;;;;;;;6.41;74.30;99240.94;5038449;28;20104;-77
2020/12/26 02:13:31;;;;;;;34.87;20.90;;;;;;;6.04;74.15;99179.19;5056201;28;20161;-78
2020/12/26 02:16:07;;;;;;;53.57;24.83;;;;;;;6.13;73.77;99196.59;5055855;28;20049;-78
2020/12/26 02:18:34;;;;;;;39.03;22.97;;;;;;;6.00;73.98;99183.94;5056035;28;20060;-78
2020/12/26 02:21:02;;;;;;;36.43;21.97;;;;;;;6.37;74.09;99245.66;5055887;28;20025;-78
2020/12/26 02:23:29;;;;;;;38.25;20.88;;;;;;;6.31;74.17;99238.44;5038336;28;20032;-78
2020/12/26 02:25:57;;;;;;;47.33;23.17;;;;;;;6.14;73.76;99213.97;5038279;28;20032;-78
2020/12/26 02:28:26;;;;;;;43.43;22.30;;;;;;;6.22;73.94;99223.66;5038092;28;20041;-78
2020/12/26 02:30:52;;;;;;;40.40;22.42;;;;;;;5.77;73.86;99164.44;5055939;28;20454;-79
2020/12/26 02:33:17;;;;;;;53.23;27.30;;;;;;;6.08;73.74;99183.13;5038073;28;20025;-78
2020/12/26 02:35:47;;;;;;;46.67;22.97;;;;;;;6.46;73.74;99265.69;5055759;28;20029;-77
2020/12/26 02:38:14;;;;;;;46.70;24.33;;;;;;;6.48;74.20;99255.88;5055577;28;20029;-79
2020/12/26 02:40:39;;;;;;;46.65;22.80;;;;;;;6.43;73.96;99238.97;5055611;28;20415;-76
2020/12/26 02:43:11;;;;;;;45.90;20.83;;;;;;;6.43;73.73;99241.59;5037662;28;20043;-78
2020/12/26 02:45:36;;;;;;;42.72;21.05;;;;;;;6.47;74.06;99253.41;5055700;28;20021;-74
2020/12/26 02:48:02;;;;;;;41.73;22.40;;;;;;;6.48;73.92;99262.91;5055370;28;20059;-78
2020/12/26 02:50:27;;;;;;;49.53;22.90;;;;;;;6.51;73.79;99252.09;5037732;28;20036;-79
2020/12/26 02:52:52;;;;;;;39.65;22.23;;;;;;;6.31;74.08;99233.19;5037758;28;20029;-78
2020/12/26 02:55:18;;;;;;;44.35;23.50;;;;;;;6.28;73.46;99223.03;5055252;28;20424;-77
2020/12/26 02:57:44;;;;;;;44.43;22.90;;;;;;;6.23;73.83;99217.44;5055303;28;20396;-79
2020/12/26 03:00:09;;;;;;;42.33;23.33;;;;;;;5.77;73.73;99150.53;5055089;28;20029;-76
2020/12/26 03:02:34;;;;;;;43.73;22.77;;;;;;;6.24;73.75;99232.19;5055097;28;20424;-77
2020/12/26 03:05:00;;;;;;;44.20;23.08;;;;;;;5.58;73.70;99133.25;5055214;28;20071;-77
2020/12/26 03:07:25;;;;;;;42.17;21.70;;;;;;;6.02;73.76;99221.28;5055069;28;20032;-80
2020/12/26 03:09:50;;;;;;;35.42;21.52;;;;;;;6.27;73.82;99245.78;5055072;28;20087;-76
2020/12/26 03:12:16;;;;;;;37.83;22.00;;;;;;;6.35;74.07;99279.91;5055020;28;20021;-79
2020/12/26 03:14:41;;;;;;;37.60;20.97;;;;;;;5.66;73.93;99165.53;5054918;28;20446;-78
2020/12/26 03:17:06;;;;;;;49.67;24.00;;;;;;;5.91;73.64;99213.66;5054666;28;20053;-80
2020/12/26 03:19:32;;;;;;;50.60;23.63;;;;;;;5.90;73.40;99211.19;5055178;28;20071;-79
2020/12/26 03:21:57;;;;;;;34.43;21.20;;;;;;;6.21;73.83;99249.03;5054891;28;20029;-76
2020/12/26 03:24:23;;;;;;;37.23;22.70;;;;;;;6.14;73.28;99244.59;5054777;28;20396;-80
2020/12/26 03:26:48;;;;;;;40.77;22.43;;;;;;;6.12;73.38;99243.94;5055001;28;20025;-77
2020/12/26 03:29:13;;;;;;;34.57;22.90;;;;;;;5.87;73.12;99206.25;5054684;28;20060;-77
2020/12/26 03:31:38;;;;;;;38.10;23.27;;;;;;;5.86;73.17;99210.66;5054778;28;20032;-78
2020/12/26 03:34:04;;;;;;;36.17;22.27;;;;;;;5.80;73.30;99210.47;5053995;28;20489;-79
2020/12/26 03:36:29;;;;;;;32.63;22.52;;;;;;;5.67;73.01;99180.28;5037107;28;20025;-79
2020/12/26 03:38:55;;;;;;;36.87;23.00;;;;;;;5.97;73.44;99220.94;5054644;28;20382;-79
2020/12/26 03:41:20;;;;;;;33.37;21.27;;;;;;;5.64;73.18;99164.03;5054476;28;20035;-77
2020/12/26 03:43:45;;;;;;;29.30;20.43;;;;;;;6.14;72.89;99248.03;5054766;28;20462;-76
2020/12/26 03:46:11;;;;;;;37.45;23.55;;;;;;;5.99;72.96;99242.56;5036802;28;20447;-79
2020/12/26 03:48:36;;;;;;;35.77;23.43;;;;;;;5.81;73.20;99209.47;5036974;28;20029;-78
2020/12/26 03:51:02;;;;;;;38.77;22.97;;;;;;;6.27;72.87;99272.00;5036916;28;20025;-79
2020/12/26 03:53:28;;;;;;;39.83;23.35;;;;;;;5.77;72.63;99188.00;5054565;28;20331;-78
2020/12/26 03:55:53;;;;;;;39.35;24.52;;;;;;;6.23;72.96;99268.06;5054469;28;20028;-77
2020/12/26 03:58:18;;;;;;;40.73;23.77;;;;;;;6.23;73.04;99269.84;5054371;28;20103;-79
2020/12/26 04:00:44;;;;;;;38.37;24.03;;;;;;;6.12;72.85;99265.72;5054418;28;20025;-78
2020/12/26 04:03:09;;;;;;;39.23;23.20;;;;;;;5.97;73.23;99227.97;5054171;28;20021;-79
2020/12/26 04:05:34;;;;;;;41.50;24.23;;;;;;;6.17;73.23;99252.13;5054628;28;20021;-77
2020/12/26 04:08:00;;;;;;;41.33;26.33;;;;;;;6.26;73.04;99265.13;5054461;28;20441;-78
2020/12/26 04:10:25;;;;;;;38.80;26.00;;;;;;;6.11;73.24;99239.66;5054308;28;20029;-80
2020/12/26 04:12:50;;;;;;;43.07;24.03;;;;;;;6.15;73.11;99254.09;5036626;28;20021;-78
2020/12/26 04:15:16;;;;;;;49.20;27.27;;;;;;;6.26;73.16;99277.41;5054052;28;20359;-76
2020/12/26 04:17:41;;;;;;;42.22;24.88;;;;;;;5.81;72.77;99205.06;5054283;28;20029;-78
2020/12/26 04:20:06;;;;;;;39.77;25.07;;;;;;;6.29;72.81;99277.09;5054304;28;20013;-77
2020/12/26 04:22:32;;;;;;;39.75;25.15;;;;;;;6.33;72.65;99273.19;5054116;28;20110;-78
2020/12/26 04:24:57;;;;;;;43.47;25.57;;;;;;;6.13;72.87;99243.78;5054352;28;20025;-75
2020/12/26 04:27:22;;;;;;;37.83;24.97;;;;;;;6.33;72.70;99265.31;5054071;28;20367;-78
2020/12/26 04:29:48;;;;;;;37.90;24.20;;;;;;;6.09;72.25;99228.50;5054296;28;20056;-78
2020/12/26 04:32:13;;;;;;;40.13;25.83;;;;;;;6.37;72.53;99266.63;5054159;28;20013;-78
2020/12/26 04:34:39;;;;;;;39.22;27.20;;;;;;;6.36;72.33;99265.00;5054083;28;20485;-78
2020/12/26 04:37:04;;;;;;;41.30;26.27;;;;;;;6.35;72.42;99263.34;5053963;28;20025;-77
2020/12/26 04:39:29;;;;;;;42.30;26.05;;;;;;;5.93;72.04;99209.09;5054395;28;20055;-77
2020/12/26 04:41:56;;;;;;;54.93;30.50;;;;;;;6.25;72.92;99275.78;5053966;28;20154;-79
2020/12/26 04:44:22;;;;;;;47.17;28.37;;;;;;;6.21;72.46;99269.19;5055053;28;20036;-78
2020/12/26 04:46:50;;;;;;;63.67;29.10;;;;;;;6.16;72.68;99274.91;5057806;28;20025;-77
2020/12/26 04:49:18;;;;;;;48.43;26.87;;;;;;;6.14;72.48;99304.88;5039972;28;20033;-76
2020/12/26 04:51:43;;;;;;;42.90;27.53;;;;;;;6.15;72.40;99299.47;5057752;28;20336;-76
2020/12/26 04:54:10;;;;;;;48.37;29.67;;;;;;;5.86;72.71;99251.75;5057601;28;20021;-76
2020/12/26 04:56:43;;;;;;;117.37;34.83;;;;;;;6.10;72.49;99296.50;5057705;28;20100;-76
2020/12/26 04:59:10;;;;;;;104.57;32.83;;;;;;;5.56;72.59;99219.81;5039807;28;20100;-78
2020/12/26 05:01:38;;;;;;;60.47;28.50;;;;;;;6.02;73.35;99283.34;5039765;28;20033;-77
2020/12/26 05:04:04;;;;;;;62.47;32.07;;;;;;;5.88;72.91;99261.09;5057370;28;20021;-77
2020/12/26 05:06:31;;;;;;;60.00;29.63;;;;;;;5.72;73.14;99245.28;5039889;28;20020;-77
2020/12/26 05:08:56;;;;;;;58.37;30.47;;;;;;;5.99;73.02;99286.28;5039780;28;20490;-76
2020/12/26 05:11:22;;;;;;;67.53;32.87;;;;;;;5.61;73.18;99214.94;5057322;28;20096;-77
2020/12/26 05:13:47;;;;;;;62.03;33.17;;;;;;;6.04;72.71;99284.84;5057411;28;20104;-77
2020/12/26 05:16:12;;;;;;;70.30;33.17;;;;;;;5.87;72.46;99248.16;5056980;28;20040;-78
2020/12/26 05:18:38;;;;;;;65.10;31.30;;;;;;;5.58;72.95;99210.00;5039434;28;20045;-78
2020/12/26 05:21:04;;;;;;;73.67;36.20;;;;;;;6.13;72.72;99301.44;5039456;28;20013;-78
2020/12/26 05:23:29;;;;;;;57.75;32.63;;;;;;;6.04;73.23;99287.47;5057053;28;20017;-77
2020/12/26 05:25:55;;;;;;;58.97;33.20;;;;;;;6.12;72.77;99310.28;5057152;28;20037;-79
2020/12/26 05:28:25;;;;;;;56.55;30.52;;;;;;;5.74;73.23;99238.09;5039278;28;20036;-76
2020/12/26 05:30:52;;;;;;;56.47;32.23;;;;;;;5.78;73.21;99225.50;5039366;28;20029;-77
2020/12/26 05:33:18;;;;;;;55.33;31.13;;;;;;;6.06;72.64;99268.97;5039174;28;20028;-75
2020/12/26 05:35:48;;;;;;;64.30;34.00;;;;;;;6.16;73.08;99298.50;5057006;28;20032;-77
2020/12/26 05:38:16;;;;;;;67.50;35.07;;;;;;;6.16;73.01;99295.88;5056906;28;20036;-76
2020/12/26 05:40:52;;;;;;;71.13;37.57;;;;;;;5.46;73.00;99184.25;5057171;28;20025;-75
2020/12/26 05:43:20;;;;;;;59.67;35.00;;;;;;;5.77;72.73;99242.22;5057569;28;20029;-76
2020/12/26 05:45:47;;;;;;;62.13;34.63;;;;;;;5.95;73.06;99270.03;5057719;28;20036;-78
2020/12/26 05:48:15;;;;;;;61.83;36.47;;;;;;;6.17;73.06;99308.00;5039435;28;20079;-78
2020/12/26 05:50:42;;;;;;;66.67;34.90;;;;;;;6.20;72.82;99293.75;5056983;28;20028;-81
2020/12/26 05:53:09;;;;;;;65.13;36.60;;;;;;;6.20;72.71;99281.47;5056479;28;20021;-79
2020/12/26 05:55:45;;;;;;;73.77;38.03;;;;;;;6.18;72.80;99286.06;5038522;28;20025;-82
2020/12/26 05:58:12;;;;;;;63.57;36.30;;;;;;;6.15;72.74;99286.38;5056477;28;20029;-77
2020/12/26 06:00:39;;;;;;;67.63;38.23;;;;;;;6.16;72.62;99297.69;5056376;28;20029;-77
2020/12/26 06:03:30;;;;;;;65.43;35.33;;;;;;;6.15;72.95;99293.41;5056425;28;20029;-78
2020/12/26 06:05:58;;;;;;;87.67;40.60;;;;;;;6.16;72.66;99287.19;5056286;28;20371;-81
2020/12/26 06:08:25;;;;;;;82.97;43.27;;;;;;;6.04;72.90;99266.50;5038562;28;20033;-80
2020/12/26 06:10:55;;;;;;;88.73;43.17;;;;;;;6.10;73.00;99266.84;5056357;28;20098;-80
2020/12/26 06:13:26;;;;;;;82.63;40.73;;;;;;;6.16;73.16;99272.28;5038462;28;20408;-79
2020/12/26 06:15:54;;;;;;;75.87;42.77;;;;;;;5.82;72.74;99221.59;5056012;28;20049;-80
2020/12/26 06:18:24;;;;;;;65.50;35.40;;;;;;;6.18;73.21;99270.34;5038459;28;20068;-83
2020/12/26 06:20:53;;;;;;;72.10;37.80;;;;;;;6.08;72.87;99264.38;5056182;28;20032;-78
2020/12/26 06:23:21;;;;;;;61.60;33.17;;;;;;;5.55;73.00;99173.66;5055879;28;20029;-82
2020/12/26 06:25:49;;;;;;;62.97;36.47;;;;;;;6.22;72.98;99281.31;5056070;28;20490;-78
2020/12/26 06:28:31;;;;;;;65.10;37.73;;;;;;;5.96;73.04;99244.66;5057069;28;20036;-75
2020/12/26 06:31:00;;;;;;;;;;;;;;;6.17;72.65;99288.84;5056671;28;20033;-80
2020/12/26 06:33:29;;;;;;;50.73;30.90;;;;;;;5.77;72.83;99223.88;5038166;28;19908;-78
2020/12/26 06:35:57;;;;;;;54.07;33.30;;;;;;;6.18;72.85;99291.31;5055854;28;20402;-78
2020/12/26 06:38:32;;;;;;;60.13;32.80;;;;;;;6.20;72.50;99299.84;5055642;28;20415;-76
2020/12/26 06:41:01;;;;;;;53.57;32.77;;;;;;;6.20;72.60;99299.00;5038008;28;20409;-77
2020/12/26 06:43:39;;;;;;;53.67;34.60;;;;;;;6.23;72.19;99291.66;5055617;28;20036;-77
2020/12/26 06:46:09;;;;;;;66.93;41.33;;;;;;;6.07;72.40;99252.25;5037947;28;20110;-77
2020/12/26 06:48:35;;;;;;;68.63;41.33;;;;;;;6.28;72.37;99276.28;5055552;28;20029;-76
2020/12/26 06:51:22;;;;;;;60.93;38.53;;;;;;;6.32;72.30;99280.22;5037759;28;20094;-78
2020/12/26 06:53:48;;;;;;;54.00;33.77;;;;;;;6.19;71.94;99260.66;5037813;28;20451;-77
2020/12/26 06:56:46;;;;;;;52.93;33.97;;;;;;;6.27;71.92;99287.75;5037638;28;20029;-78
2020/12/26 06:59:13;;;;;;;55.57;33.10;;;;;;;6.30;72.29;99283.97;4984317;28;20098;-77
2020/12/26 07:01:40;;;;;;;57.57;34.90;;;;;;;6.35;72.04;99284.34;5037354;28;20427;-77
2020/12/26 07:04:12;;;;;;;55.23;34.47;;;;;;;6.35;72.21;99284.34;5055328;28;20331;-79
2020/12/26 07:06:45;;;;;;;62.83;37.33;;;;;;;6.39;72.25;99288.28;5037548;28;20036;-77
2020/12/26 07:09:12;;;;;;;67.23;39.53;;;;;;;6.42;71.91;99295.84;5036639;28;20029;-80
2020/12/26 07:11:47;;;;;;;65.77;38.63;;;;;;;6.41;71.79;99285.50;5055144;28;20035;-78
2020/12/26 07:14:27;;;;;;;69.77;43.60;;;;;;;6.41;71.58;99299.44;5037317;28;20112;-77
2020/12/26 07:16:52;;;;;;;64.43;40.77;;;;;;;5.92;71.54;99222.34;5054923;28;20144;-77
2020/12/26 07:19:47;;;;;;;66.93;42.33;;;;;;;6.28;72.15;99271.03;5054933;28;20128;-77
2020/12/26 07:22:16;;;;;;;76.30;47.40;;;;;;;6.57;72.11;99306.56;5033701;28;20040;-78
2020/12/26 07:24:49;;;;;;;85.47;50.80;;;;;;;6.47;71.61;99279.63;5054785;28;20036;-77
2020/12/26 07:27:31;;;;;;;86.37;53.50;;;;;;;6.67;71.35;99310.69;5055083;28;20025;-77
2020/12/26 07:30:08;;;;;;;114.93;62.58;;;;;;;6.71;71.61;99313.84;5037228;28;20035;-77
2020/12/26 07:32:38;;;;;;;154.37;78.17;;;;;;;6.76;71.56;99321.25;5054882;28;20025;-79
2020/12/26 07:35:03;;;;;;;154.77;78.17;;;;;;;6.76;71.73;99335.19;5036993;28;20037;-79
2020/12/26 07:37:29;;;;;;;167.33;85.67;;;;;;;6.77;71.26;99339.44;5054686;28;20098;-77
2020/12/26 07:39:54;;;;;;;155.53;83.10;;;;;;;6.40;71.53;99299.59;5054690;28;20032;-77
2020/12/26 07:42:23;;;;;;;158.40;82.53;;;;;;;6.27;71.48;99271.19;5054479;28;20351;-77
2020/12/26 07:44:49;;;;;;;159.00;83.20;;;;;;;6.33;71.23;99263.50;5054719;28;20436;-78
2020/12/26 07:47:15;;;;;;;149.48;79.43;;;;;;;6.86;71.88;99335.88;5036825;28;20036;-80
2020/12/26 07:49:41;;;;;;;160.40;86.53;;;;;;;6.63;71.13;99306.72;5054633;28;20435;-78
2020/12/26 07:52:08;;;;;;;120.07;68.05;;;;;;;6.85;71.26;99342.09;5054420;28;20032;-77
2020/12/26 07:54:36;;;;;;;146.38;80.57;;;;;;;6.79;71.50;99349.78;5054577;28;20100;-77
2020/12/26 07:57:02;;;;;;;154.70;79.97;;;;;;;6.36;71.37;99305.16;5036808;28;20029;-78
2020/12/26 07:59:28;;;;;;;122.23;69.47;;;;;;;6.74;71.99;99352.88;5054356;28;20025;-81
2020/12/26 08:01:57;;;;;;;112.40;66.25;;;;;;;6.22;71.55;99263.78;5036526;28;20021;-77
2020/12/26 08:04:23;;;;;;;90.95;54.20;;;;;;;6.37;71.64;99285.81;5036712;28;20025;-78
2020/12/26 08:06:50;;;;;;;62.60;39.90;;;;;;;6.88;72.10;99357.53;5036771;28;20028;-79
2020/12/26 08:09:17;;;;;;;57.28;37.30;;;;;;;6.47;71.88;99295.38;5036666;28;20029;-81
2020/12/26 08:11:44;;;;;;;64.47;36.93;;;;;;;6.97;71.61;99364.44;5054459;28;20017;-79
2020/12/26 08:14:13;;;;;;;59.85;35.35;;;;;;;6.51;71.32;99283.56;5054307;28;20025;-80
2020/12/26 08:16:39;;;;;;;61.55;37.10;;;;;;;6.80;71.41;99333.88;5036675;28;20530;-79
2020/12/26 08:19:04;;;;;;;67.73;37.20;;;;;;;6.79;71.76;99329.63;5037404;28;20100;-78
2020/12/26 08:21:31;;;;;;;71.22;37.05;;;;;;;6.99;71.73;99351.97;5040416;28;20458;-79
2020/12/26 08:24:02;;;;;;;75.10;38.70;;;;;;;6.97;71.82;99351.31;5058357;28;20036;-82
2020/12/26 08:26:29;;;;;;;66.50;35.80;;;;;;;6.42;71.67;99266.16;5058173;28;20443;-79
2020/12/26 08:29:02;;;;;;;62.95;35.13;;;;;;;6.95;71.69;99362.97;5058261;28;20064;-78
2020/12/26 08:31:30;;;;;;;65.93;37.65;;;;;;;6.66;72.37;99313.47;5057950;28;20029;-77
2020/12/26 08:34:07;;;;;;;72.45;36.30;;;;;;;6.93;72.14;99368.38;5057943;28;20486;-79
2020/12/26 08:36:38;;;;;;;78.53;40.85;;;;;;;6.59;72.21;99333.44;5040409;28;20060;-79
2020/12/26 08:39:07;;;;;;;85.90;38.72;;;;;;;6.77;72.73;99376.19;5058065;28;20111;-79
2020/12/26 08:41:38;;;;;;;66.53;38.35;;;;;;;6.74;73.02;99373.06;5040437;28;20343;-80
2020/12/26 08:44:09;;;;;;;77.60;39.03;;;;;;;6.70;72.56;99372.53;5057983;28;20397;-80
2020/12/26 08:46:41;;;;;;;86.38;40.83;;;;;;;6.27;72.82;99315.75;5040182;28;20029;-77
2020/12/26 08:49:06;;;;;;;101.03;44.35;;;;;;;5.87;73.02;99232.44;5040138;28;20112;-79
2020/12/26 08:51:39;;;;;;;116.28;49.97;;;;;;;6.63;73.32;99359.19;5057643;28;20163;-80
2020/12/26 08:54:05;;;;;;;126.40;49.83;;;;;;;6.33;73.26;99315.97;5057871;28;20090;-79
2020/12/26 08:56:37;;;;;;;101.10;48.13;;;;;;;6.59;73.67;99376.22;5057501;28;20033;-78
2020/12/26 08:59:03;;;;;;;79.70;40.90;;;;;;;6.59;73.27;99355.25;5057591;28;20032;-79
2020/12/26 09:01:29;;;;;;;91.10;46.33;;;;;;;6.03;73.13;99256.16;5039544;28;20025;-78
2020/12/26 09:03:56;;;;;;;88.43;47.25;;;;;;;6.43;72.95;99287.00;5057619;28;20032;-81
2020/12/26 09:06:38;;;;;;;100.70;52.67;;;;;;;6.38;72.71;99271.72;5039900;28;20033;-80
2020/12/26 09:09:21;;;;;;;85.93;46.75;;;;;;;6.96;72.52;99357.56;5039718;28;20029;-80
2020/12/26 09:11:58;;;;;;;100.83;51.70;;;;;;;7.03;72.49;99346.41;5039565;28;20029;-77
2020/12/26 09:14:24;;;;;;;111.60;52.10;;;;;;;7.05;72.44;99360.19;5039589;28;20382;-78
2020/12/26 09:16:57;;;;;;;98.50;50.30;;;;;;;7.06;72.23;99343.47;5057001;28;20045;-77
2020/12/26 09:19:23;;;;;;;87.43;48.47;;;;;;;6.98;72.09;99316.22;5057034;28;20096;-78
2020/12/26 09:21:48;;;;;;;92.63;48.83;;;;;;;6.72;72.24;99265.63;5057136;28;20104;-80
2020/12/26 09:24:18;;;;;;;89.27;48.07;;;;;;;7.15;72.14;99332.00;5057152;28;20387;-76
2020/12/26 09:26:44;;;;;;;88.73;46.70;;;;;;;7.21;72.06;99339.22;5039451;28;20035;-79
2020/12/26 09:29:19;;;;;;;88.97;46.28;;;;;;;6.93;72.42;99294.06;5057167;28;20032;-79
2020/12/26 09:31:45;;;;;;;91.57;48.67;;;;;;;7.34;72.24;99342.22;5056237;28;20498;-77
2020/12/26 09:34:22;;;;;;;93.25;49.70;;;;;;;7.07;72.00;99293.44;5039132;28;20025;-80
2020/12/26 09:36:48;;;;;;;95.78;49.03;;;;;;;7.40;72.26;99330.22;5056913;28;20036;-80
2020/12/26 09:39:14;;;;;;;97.10;50.47;;;;;;;6.99;71.78;99251.41;5056557;28;20032;-77
2020/12/26 09:41:49;;;;;;;92.68;48.88;;;;;;;7.43;72.22;99322.88;5056887;28;20025;-79
2020/12/26 09:44:15;;;;;;;110.45;56.25;;;;;;;7.39;72.44;99324.16;5056595;28;20029;-78
2020/12/26 09:46:43;;;;;;;113.97;60.00;;;;;;;7.27;71.90;99307.06;5057051;28;20395;-79
2020/12/26 09:49:09;;;;;;;113.75;57.95;;;;;;;7.25;72.15;99290.66;5039017;28;20036;-79
2020/12/26 09:51:35;;;;;;;119.15;61.67;;;;;;;7.44;71.91;99305.31;5056582;28;20025;-78
2020/12/26 09:54:01;;;;;;;115.67;60.80;;;;;;;6.93;72.15;99225.81;5056599;28;20151;-79
2020/12/26 09:56:26;;;;;;;106.80;57.25;;;;;;;7.42;71.65;99292.31;5056499;28;20107;-79
2020/12/26 09:58:52;;;;;;;114.03;59.25;;;;;;;7.47;72.16;99291.84;5056561;28;20358;-78
2020/12/26 10:01:19;;;;;;;90.93;50.08;;;;;;;7.10;72.23;99222.22;5038640;28;20021;-79
2020/12/26 10:03:45;;;;;;;75.10;43.30;;;;;;;7.62;71.85;99311.22;5056387;28;20020;-78
2020/12/26 10:06:11;;;;;;;83.43;44.83;;;;;;;7.43;72.11;99280.84;5038670;28;20029;-78
2020/12/26 10:08:37;;;;;;;82.63;43.35;;;;;;;7.61;72.13;99314.84;5038623;28;20025;-79
2020/12/26 10:11:02;;;;;;;92.03;46.67;;;;;;;6.88;72.31;99202.69;5038894;28;20052;-78
2020/12/26 10:13:28;;;;;;;70.90;40.88;;;;;;;7.29;72.49;99270.97;5056317;28;20100;-80
2020/12/26 10:15:53;;;;;;;76.88;41.85;;;;;;;7.63;72.34;99302.34;5055991;28;20053;-77
2020/12/26 10:18:18;;;;;;;75.07;40.80;;;;;;;7.11;72.43;99213.38;5038501;28;20029;-79
2020/12/26 10:20:44;;;;;;;77.50;43.65;;;;;;;7.68;72.12;99293.97;5056127;28;20470;-80
2020/12/26 10:23:09;;;;;;;71.78;41.65;;;;;;;7.69;72.74;99290.34;5055956;28;20347;-78
2020/12/26 10:25:36;;;;;;;86.47;47.30;;;;;;;6.96;72.33;99167.75;5038349;28;20025;-77
2020/12/26 10:28:01;;;;;;;74.43;43.90;;;;;;;7.44;72.14;99261.47;5056130;28;20025;-78
2020/12/26 10:30:26;;;;;;;82.55;45.30;;;;;;;7.73;71.88;99265.38;5055804;28;20500;-79
2020/12/26 10:32:52;;;;;;;68.13;42.28;;;;;;;7.70;72.10;99249.97;5038108;28;20021;-78
2020/12/26 10:35:18;;;;;;;87.80;48.50;;;;;;;7.92;72.33;99284.25;5038060;28;20020;-77
2020/12/26 10:37:43;;;;;;;103.32;56.28;;;;;;;7.53;71.71;99218.47;5055827;28;20023;-77
2020/12/26 10:40:08;;;;;;;98.20;55.28;;;;;;;7.79;72.52;99269.97;5055645;28;20021;-78
2020/12/26 10:42:34;;;;;;;86.88;49.35;;;;;;;7.49;72.53;99216.31;5055379;28;20025;-78
2020/12/26 10:45:00;;;;;;;111.28;64.55;;;;;;;7.64;71.77;99244.38;5038015;28;20115;-78
2020/12/26 10:47:25;;;;;;;104.43;56.10;;;;;;;7.85;72.59;99269.31;5055411;28;20033;-78
2020/12/26 10:49:51;;;;;;;85.00;49.88;;;;;;;7.49;72.52;99222.41;5055648;28;20029;-79
2020/12/26 10:52:16;;;;;;;90.18;52.03;;;;;;;8.04;72.40;99278.63;5055561;28;20092;-78
2020/12/26 10:54:41;;;;;;;92.88;49.28;;;;;;;8.09;71.80;99290.28;5055434;28;20029;-79
2020/12/26 10:57:07;;;;;;;74.13;45.03;;;;;;;7.72;71.84;99256.69;5055261;28;20017;-78
2020/12/26 10:59:32;;;;;;;77.97;44.45;;;;;;;7.72;72.44;99243.56;5055069;28;20350;-79
2020/12/26 11:01:57;;;;;;;71.30;43.05;;;;;;;8.07;71.78;99294.06;5055159;28;20092;-79
2020/12/26 11:04:23;;;;;;;69.20;39.70;;;;;;;7.79;72.32;99238.44;5055187;28;20021;-80
2020/12/26 11:06:49;;;;;;;75.03;45.58;;;;;;;8.13;72.33;99294.22;5037573;28;20075;-77
2020/12/26 11:09:18;;;;;;;76.50;44.33;;;;;;;8.13;71.91;99290.78;5055162;28;20029;-79
2020/12/26 11:11:51;;;;;;;82.45;49.78;;;;;;;8.15;71.99;99300.13;5055027;28;20478;-77
2020/12/26 11:14:18;;;;;;;82.88;49.97;;;;;;;7.51;72.01;99212.53;5055048;28;20450;-80
2020/12/26 11:16:50;;;;;;;87.18;49.33;;;;;;;8.19;71.84;99293.56;5037257;28;20051;-77
2020/12/26 11:19:16;;;;;;;88.30;47.67;;;;;;;8.21;72.22;99278.44;5037074;28;20029;-80
2020/12/26 11:21:43;;;;;;;84.10;46.00;;;;;;;8.25;72.34;99274.50;5054750;28;20032;-79
2020/12/26 11:24:10;;;;;;;84.35;45.40;;;;;;;8.25;72.43;99276.31;5054881;28;20029;-77
2020/12/26 11:26:36;;;;;;;77.93;40.90;;;;;;;8.22;72.33;99266.94;5054775;28;20024;-78